Adagio — 2BLL3 — position and weather

sailwx.info

Track history (hours):
 
Tides and Currents Weather Stations Pressure Air Temp Water Temp Dewpoint Dewpoint Depression Visibility Wind Speed Wind Dir Waves Ship Positions

Adagio

Last reported at 2018-Jul-03 02:20 UTC. Time now 2018-Jul-18 12:29 UTC.
Position S 27°37' E 153°19'.
Warning: this ship's position is 15 days out of date.

Length 22 m.

Type: Pleasure craft. MMSI: 235067171.

Date/timePositionNaut miles runAvg speedWind from/ knotsBaromVisibWave heightAir tempDewpointWater temp
2018-Jul-03 02:20S 27°37' E 153°19'3 7.6
2018-Jul-03 01:58S 27°39' E 153°21'4 8.6
2018-Jul-03 01:30S 27°43' E 153°21'3 6.2
2018-Jul-03 01:00S 27°46' E 153°22'3 5.9
2018-Jul-03 00:30S 27°48' E 153°25'4 8.3
2018-Jul-03 00:00S 27°52' E 153°24'2 3.3
2018-Jul-02 23:30S 27°51' E 153°22'2 3.6
2018-Jul-02 23:00S 27°52' E 153°20'0 0.0
2018-Jul-02 22:24S 27°52' E 153°20'0 0.0
2018-Jul-02 21:33S 27°52' E 153°20'0 0.0
2018-Jul-02 21:27S 27°52' E 153°20'0 0.0
2018-Jul-02 20:54S 27°52' E 153°20'0 0.0
2018-Jul-02 20:27S 27°52' E 153°20'0 0.0
2018-Jul-02 20:00S 27°52' E 153°20'0 0.0
2018-Jul-02 19:27S 27°52' E 153°20'0 0.0
2018-Jul-02 18:57S 27°52' E 153°20'0 0.0
2018-Jul-02 18:27S 27°52' E 153°20'0 0.0
2018-Jul-02 17:06S 27°52' E 153°20'0 0.0
2018-Jul-02 17:00S 27°52' E 153°20'0 0.0
2018-Jul-02 16:30S 27°52' E 153°20'0 0.0
2018-Jul-02 15:51S 27°52' E 153°20'0 0.0
2018-Jul-02 15:30S 27°52' E 153°20'0 0.0
2018-Jul-02 14:54S 27°52' E 153°20'0 0.0
2018-Jul-02 14:27S 27°52' E 153°20'0 0.0
2018-Jul-02 14:00S 27°52' E 153°20'0 0.0
2018-Jul-02 13:27S 27°52' E 153°20'0 0.0
2018-Jul-02 12:57S 27°52' E 153°20'0 0.0
2018-Jul-02 12:21S 27°52' E 153°20'0 0.0
2018-Jul-02 11:54S 27°52' E 153°20'0 0.0
2018-Jul-02 11:30S 27°52' E 153°20'0 0.0
2018-Jul-02 11:00S 27°52' E 153°20'0 0.0
2018-Jul-02 10:18S 27°52' E 153°20'0 0.0
2018-Jul-02 10:00S 27°52' E 153°20'0 0.0
2018-Jul-02 09:24S 27°52' E 153°20'0 0.0
2018-Jul-02 08:54S 27°52' E 153°20'0 0.0
2018-Jul-02 08:18S 27°52' E 153°20'0 0.0
2018-Jul-02 06:54S 27°52' E 153°20'0 0.0
2018-Jul-02 06:24S 27°52' E 153°20'0 0.0
2018-Jul-02 05:54S 27°52' E 153°20'0 0.0
2018-Jul-02 05:21S 27°52' E 153°20'0 0.0
2018-Jul-02 05:00S 27°52' E 153°20'0 0.0
2018-Jul-02 04:30S 27°52' E 153°20'0 0.0
2018-Jul-02 03:45S 27°52' E 153°20'0 0.0
2018-Jul-02 03:30S 27°52' E 153°20'0 0.0
2018-Jul-02 02:54S 27°52' E 153°20'0 0.0
2018-Jul-02 01:51S 27°52' E 153°20'0 0.0
2018-Jul-02 01:21S 27°52' E 153°20'0 0.0
2018-Jul-02 00:33S 27°52' E 153°20'0 0.0
2018-Jul-02 00:30S 27°52' E 153°20'0 0.0
2018-Jul-01 23:48S 27°52' E 153°20'0 0.0
2018-Jul-01 23:21S 27°52' E 153°20'0 0.0
2018-Jul-01 22:42S 27°52' E 153°20'0 0.0
2018-Jul-01 22:15S 27°52' E 153°20'0 0.0
2018-Jul-01 21:57S 27°52' E 153°20'0 0.0
2018-Jul-01 21:12S 27°52' E 153°20'0 0.0
2018-Jul-01 19:03S 27°52' E 153°20'0 0.0
2018-Jul-01 18:48S 27°52' E 153°20'0 0.0
2018-Jul-01 18:30S 27°52' E 153°20'0 0.0
2018-Jul-01 17:57S 27°52' E 153°20'0 0.0
2018-Jul-01 17:30S 27°52' E 153°20'0 0.0
2018-Jul-01 16:45S 27°52' E 153°20'0 0.0
2018-Jul-01 15:45S 27°52' E 153°20'0 0.0
2018-Jul-01 15:21S 27°52' E 153°20'0 0.0
2018-Jul-01 14:57S 27°52' E 153°20'0 0.0
2018-Jul-01 14:21S 27°52' E 153°20'0 0.0
2018-Jul-01 13:51S 27°52' E 153°20'0 0.0
2018-Jul-01 13:27S 27°52' E 153°20'0 0.0
2018-Jul-01 13:00S 27°52' E 153°20'0 0.0
2018-Jul-01 12:12S 27°52' E 153°20'0 0.0
2018-Jul-01 11:42S 27°52' E 153°20'0 0.0
2018-Jul-01 11:24S 27°52' E 153°20'0 0.0
2018-Jul-01 10:48S 27°52' E 153°20'0 0.0
2018-Jul-01 09:57S 27°52' E 153°20'0 0.0
2018-Jul-01 09:27S 27°52' E 153°20'0 0.0
2018-Jul-01 08:57S 27°52' E 153°20'0 0.0
2018-Jul-01 08:27S 27°52' E 153°20'0 0.0
2018-Jul-01 07:27S 27°52' E 153°20'0 0.0
2018-Jul-01 06:30S 27°52' E 153°20'0 0.0
2018-Jul-01 05:57S 27°52' E 153°20'0 0.0
2018-Jul-01 05:21S 27°52' E 153°20'0 0.0
2018-Jul-01 04:57S 27°52' E 153°20'0 0.0
2018-Jul-01 03:15S 27°52' E 153°20'0 0.0
2018-Jul-01 02:54S 27°52' E 153°20'0 0.0
2018-Jul-01 02:18S 27°52' E 153°20'0 0.0
2018-Jul-01 01:57S 27°52' E 153°20'0 0.0
2018-Jul-01 00:57S 27°52' E 153°20'0 0.0
2018-Jul-01 00:30S 27°52' E 153°20'0 0.0
2018-Jun-30 23:48S 27°52' E 153°20'0 0.0
2018-Jun-30 23:21S 27°52' E 153°20'0 0.0
2018-Jun-30 22:54S 27°52' E 153°20'0 0.0
2018-Jun-30 22:21S 27°52' E 153°20'0 0.0
2018-Jun-30 21:15S 27°52' E 153°20'0 0.0
2018-Jun-30 20:51S 27°52' E 153°20'0 0.0
2018-Jun-30 20:21S 27°52' E 153°20'0 0.0
2018-Jun-30 19:57S 27°52' E 153°20'0 0.0
2018-Jun-30 19:30S 27°52' E 153°20'0 0.0
2018-Jun-30 18:54S 27°52' E 153°20'0 0.0
2018-Jun-30 18:18S 27°52' E 153°20'0 0.0
2018-Jun-30 17:57S 27°52' E 153°20'0 0.0
2018-Jun-30 16:33S 27°52' E 153°20'0 0.0
2018-Jun-30 16:27S 27°52' E 153°20'0 0.0
2018-Jun-30 15:57S 27°52' E 153°20'0 0.0
2018-Jun-30 15:27S 27°52' E 153°20'0 0.0
2018-Jun-30 14:36S 27°52' E 153°20'0 0.0
2018-Jun-30 14:30S 27°52' E 153°20'0 0.0
2018-Jun-30 13:54S 27°52' E 153°20'0 0.0
2018-Jun-30 13:30S 27°52' E 153°20'0 0.0
2018-Jun-30 13:00S 27°52' E 153°20'0 0.0
2018-Jun-30 12:21S 27°52' E 153°20'0 0.0
2018-Jun-30 11:57S 27°52' E 153°20'0 0.0
2018-Jun-30 11:27S 27°52' E 153°20'0 0.0
2018-Jun-30 10:45S 27°52' E 153°20'0 0.0
2018-Jun-30 10:21S 27°52' E 153°20'0 0.0
2018-Jun-30 09:54S 27°52' E 153°20'0 0.0
2018-Jun-30 09:30S 27°52' E 153°20'0 0.0
2018-Jun-30 08:57S 27°52' E 153°20'0 0.0
2018-Jun-30 08:09S 27°52' E 153°20'0 0.0
2018-Jun-30 03:42S 27°52' E 153°20'0 0.0
2018-Jun-30 03:30S 27°52' E 153°20'0 0.0
2018-Jun-30 03:00S 27°52' E 153°20'0 0.0
2018-Jun-30 02:30S 27°52' E 153°20'0 0.0
2018-Jun-30 02:00S 27°52' E 153°20'0 0.0
2018-Jun-30 01:30S 27°52' E 153°20'0 0.0
2018-Jun-30 01:00S 27°52' E 153°20'0 0.0
2018-Jun-30 00:30S 27°52' E 153°20'0 0.0
2018-Jun-30 00:00S 27°52' E 153°20'0 0.0
2018-Jun-29 23:30S 27°52' E 153°20'0 0.0
2018-Jun-29 23:00S 27°52' E 153°20'0 0.0
2018-Jun-29 22:30S 27°52' E 153°20'0 0.0
2018-Jun-29 22:00S 27°52' E 153°20'0 0.0
2018-Jun-29 21:30S 27°52' E 153°20'0 0.0
2018-Jun-29 21:00S 27°52' E 153°20'0 0.0
2018-Jun-29 20:30S 27°52' E 153°20'0 0.0
2018-Jun-29 20:00S 27°52' E 153°20'0 0.0
2018-Jun-29 19:30S 27°52' E 153°20'0 0.0
2018-Jun-29 19:00S 27°52' E 153°20'0 0.0
2018-Jun-29 18:30S 27°52' E 153°20'0 0.0
2018-Jun-29 18:00S 27°52' E 153°20'0 0.0
2018-Jun-29 17:30S 27°52' E 153°20'0 0.0
2018-Jun-29 17:00S 27°52' E 153°20'0 0.0
2018-Jun-29 16:30S 27°52' E 153°20'0 0.0
2018-Jun-29 16:00S 27°52' E 153°20'0 0.0
2018-Jun-29 15:28S 27°52' E 153°20'0 0.0
2018-Jun-29 14:58S 27°52' E 153°20'0 0.0
2018-Jun-29 14:28S 27°52' E 153°20'0 0.0
2018-Jun-29 13:58S 27°52' E 153°20'0 0.0
2018-Jun-29 13:28S 27°52' E 153°20'0 0.0
2018-Jun-29 12:58S 27°52' E 153°20'0 0.0
2018-Jun-29 12:28S 27°52' E 153°20'0 0.0
2018-Jun-29 11:58S 27°52' E 153°20'0 0.0
2018-Jun-29 11:28S 27°52' E 153°20'0 0.0
2018-Jun-29 10:58S 27°52' E 153°20'0 0.0
2018-Jun-29 10:28S 27°52' E 153°20'0 0.0
2018-Jun-29 09:55S 27°52' E 153°20'0 0.0
2018-Jun-29 09:28S 27°52' E 153°20'0 0.0
2018-Jun-29 08:58S 27°52' E 153°20'0 0.0
2018-Jun-29 08:28S 27°52' E 153°20'0 0.0
2018-Jun-29 07:58S 27°52' E 153°20'0 0.0
2018-Jun-29 07:25S 27°52' E 153°20'0 0.0
2018-Jun-29 06:58S 27°52' E 153°20'0 0.0
2018-Jun-29 06:28S 27°52' E 153°20'0 0.0
2018-Jun-29 05:52S 27°52' E 153°20'0 0.0
2018-Jun-29 05:28S 27°52' E 153°20'0 0.0
2018-Jun-29 04:58S 27°52' E 153°20'0 0.0
2018-Jun-29 04:28S 27°52' E 153°20'0 0.0
2018-Jun-29 03:58S 27°52' E 153°20'0 0.0
2018-Jun-29 03:28S 27°52' E 153°20'0 0.0
2018-Jun-29 02:58S 27°52' E 153°20'0 0.0
2018-Jun-29 02:28S 27°52' E 153°20'0 0.0
2018-Jun-29 01:58S 27°52' E 153°20'0 0.0
2018-Jun-29 01:28S 27°52' E 153°20'0 0.0
2018-Jun-29 00:58S 27°52' E 153°20'0 0.0
2018-Jun-29 00:28S 27°52' E 153°20'0 0.0
2018-Jun-28 23:58S 27°52' E 153°20'0 0.0
2018-Jun-28 23:22S 27°52' E 153°20'0 0.0
2018-Jun-28 22:58S 27°52' E 153°20'0 0.0
2018-Jun-28 22:25S 27°52' E 153°20'0 0.0
2018-Jun-28 21:58S 27°52' E 153°20'0 0.0
2018-Jun-28 21:28S 27°52' E 153°20'0 0.0
2018-Jun-28 20:58S 27°52' E 153°20'0 0.0
2018-Jun-28 20:28S 27°52' E 153°20'0 0.0
2018-Jun-28 19:58S 27°52' E 153°20'0 0.0
2018-Jun-28 19:28S 27°52' E 153°20'0 0.0
2018-Jun-28 18:58S 27°52' E 153°20'0 0.0
2018-Jun-28 18:28S 27°52' E 153°20'0 0.0
2018-Jun-28 17:58S 27°52' E 153°20'0 0.0
2018-Jun-28 17:28S 27°52' E 153°20'0 0.0
2018-Jun-28 16:58S 27°52' E 153°20'0 0.0
2018-Jun-28 16:28S 27°52' E 153°20'0 0.0
2018-Jun-28 15:58S 27°52' E 153°20'0 0.0
2018-Jun-28 15:28S 27°52' E 153°20'0 0.0
2018-Jun-28 14:58S 27°52' E 153°20'0 0.0
2018-Jun-28 14:28S 27°52' E 153°20'0 0.0
2018-Jun-28 13:58S 27°52' E 153°20'0 0.0
2018-Jun-28 13:28S 27°52' E 153°20'0 0.0
2018-Jun-28 12:58S 27°52' E 153°20'0 0.0
2018-Jun-28 12:28S 27°52' E 153°20'0 0.0
2018-Jun-28 11:58S 27°52' E 153°20'0 0.0
2018-Jun-28 11:28S 27°52' E 153°20'0 0.0
2018-Jun-28 10:58S 27°52' E 153°20'0 0.0
2018-Jun-28 10:28S 27°52' E 153°20'0 0.0
2018-Jun-28 09:58S 27°52' E 153°20'0 0.0
2018-Jun-28 09:25S 27°52' E 153°20'0 0.0
2018-Jun-28 08:58S 27°52' E 153°20'0 0.0
2018-Jun-28 08:28S 27°52' E 153°20'0 0.0
2018-Jun-28 07:58S 27°52' E 153°20'0 0.0
2018-Jun-28 07:28S 27°52' E 153°20'0 0.0
2018-Jun-28 06:58S 27°52' E 153°20'0 0.0
2018-Jun-28 06:25S 27°52' E 153°20'0 0.0
2018-Jun-28 05:58S 27°52' E 153°20'0 0.0
2018-Jun-28 05:28S 27°52' E 153°20'0 0.0
2018-Jun-28 04:58S 27°52' E 153°20'0 0.0
2018-Jun-28 04:28S 27°52' E 153°20'0 0.0
2018-Jun-28 03:58S 27°52' E 153°20'0 0.0
2018-Jun-28 03:28S 27°52' E 153°20'0 0.0
2018-Jun-28 02:58S 27°52' E 153°20'0 0.0
2018-Jun-28 02:28S 27°52' E 153°20'0 0.0
2018-Jun-28 01:58S 27°52' E 153°20'0 0.0
2018-Jun-28 01:28S 27°52' E 153°20'0 0.0
2018-Jun-28 00:58S 27°52' E 153°20'0 0.0
2018-Jun-28 00:28S 27°52' E 153°20'0 0.0
2018-Jun-27 23:52S 27°52' E 153°20'0 0.0
2018-Jun-27 23:28S 27°52' E 153°20'0 0.0
2018-Jun-27 21:13S 27°52' E 153°20'0 0.0
2018-Jun-27 20:58S 27°52' E 153°20'0 0.0
2018-Jun-27 20:22S 27°52' E 153°20'0 0.0
2018-Jun-27 19:40S 27°52' E 153°20'0 0.0
2018-Jun-27 19:22S 27°52' E 153°20'0 0.0
2018-Jun-27 18:43S 27°52' E 153°20'0 0.0
2018-Jun-27 18:25S 27°52' E 153°20'0 0.0
2018-Jun-27 17:49S 27°52' E 153°20'0 0.0
2018-Jun-27 17:22S 27°52' E 153°20'0 0.0
2018-Jun-27 16:55S 27°52' E 153°20'0 0.0
2018-Jun-27 16:25S 27°52' E 153°20'0 0.0
2018-Jun-27 15:55S 27°52' E 153°20'0 0.0
2018-Jun-27 15:28S 27°52' E 153°20'0 0.0
2018-Jun-27 14:58S 27°52' E 153°20'0 0.0
2018-Jun-27 14:28S 27°52' E 153°20'0 0.0
2018-Jun-27 13:58S 27°52' E 153°20'0 0.0
2018-Jun-27 13:01S 27°52' E 153°20'0 0.0
2018-Jun-27 12:58S 27°52' E 153°20'0 0.0
2018-Jun-27 12:22S 27°52' E 153°20'0 0.0
2018-Jun-27 11:40S 27°52' E 153°20'0 0.0
2018-Jun-27 11:16S 27°52' E 153°20'0 0.0
2018-Jun-27 10:52S 27°52' E 153°20'0 0.0
2018-Jun-27 01:28S 27°52' E 153°20'0 0.0
2018-Jun-27 00:58S 27°52' E 153°20'0 0.0
2018-Jun-27 00:25S 27°52' E 153°20'0 0.0
2018-Jun-26 23:58S 27°52' E 153°20'0 0.0
2018-Jun-26 23:28S 27°52' E 153°20'0 0.0
2018-Jun-26 22:55S 27°52' E 153°20'0 0.0
2018-Jun-26 22:28S 27°52' E 153°20'0 0.0
2018-Jun-26 21:58S 27°52' E 153°20'0 0.0
2018-Jun-26 21:28S 27°52' E 153°20'0 0.0
2018-Jun-26 20:52S 27°52' E 153°20'0 0.0
2018-Jun-26 20:28S 27°52' E 153°20'0 0.0
2018-Jun-26 19:58S 27°52' E 153°20'0 0.0
2018-Jun-26 19:28S 27°52' E 153°20'0 0.0
2018-Jun-26 18:58S 27°52' E 153°20'0 0.0
2018-Jun-26 18:28S 27°52' E 153°20'0 0.0
2018-Jun-26 17:55S 27°52' E 153°20'0 0.0
2018-Jun-26 17:25S 27°52' E 153°20'0 0.0
2018-Jun-26 16:58S 27°52' E 153°20'0 0.0
2018-Jun-26 16:00S 27°52' E 153°20'0 0.0
2018-Jun-26 15:30S 27°52' E 153°20'0 0.0
2018-Jun-26 15:00S 27°52' E 153°20'0 0.0
2018-Jun-26 14:24S 27°52' E 153°20'0 0.0
2018-Jun-26 13:54S 27°52' E 153°20'0 0.0
2018-Jun-26 13:30S 27°52' E 153°20'0 0.0
2018-Jun-26 13:00S 27°52' E 153°20'0 0.0
2018-Jun-26 12:30S 27°52' E 153°20'0 0.0
2018-Jun-26 12:00S 27°52' E 153°20'0 0.0
2018-Jun-26 11:30S 27°52' E 153°20'0 0.0
2018-Jun-26 11:00S 27°52' E 153°20'0 0.0
2018-Jun-26 10:30S 27°52' E 153°20'0 0.0
2018-Jun-26 10:00S 27°52' E 153°20'0 0.0
2018-Jun-26 09:30S 27°52' E 153°20'0 0.0
2018-Jun-26 09:00S 27°52' E 153°20'0 0.0
2018-Jun-26 08:15S 27°52' E 153°20'0 0.0
2018-Jun-26 08:00S 27°52' E 153°20'0 0.0
2018-Jun-26 07:30S 27°52' E 153°20'0 0.0
2018-Jun-26 07:00S 27°52' E 153°20'0 0.0
2018-Jun-26 06:27S 27°52' E 153°20'0 0.0
2018-Jun-26 05:54S 27°52' E 153°20'0 0.0
2018-Jun-26 05:30S 27°52' E 153°20'0 0.0
2018-Jun-26 04:57S 27°52' E 153°20'0 0.0
2018-Jun-26 04:30S 27°52' E 153°20'0 0.0
2018-Jun-26 03:57S 27°52' E 153°20'0 0.0
2018-Jun-26 03:30S 27°52' E 153°20'0 0.0
2018-Jun-26 03:00S 27°52' E 153°20'0 0.0
2018-Jun-26 02:30S 27°52' E 153°20'0 0.0
2018-Jun-26 02:00S 27°52' E 153°20'0 0.0
2018-Jun-26 01:21S 27°52' E 153°20'0 0.0
2018-Jun-26 00:57S 27°52' E 153°20'0 0.0
2018-Jun-26 00:30S 27°52' E 153°20'0 0.0
2018-Jun-26 00:00S 27°52' E 153°20'0 0.0
2018-Jun-25 23:27S 27°52' E 153°20'0 0.0
2018-Jun-25 22:57S 27°52' E 153°20'0 0.0
2018-Jun-25 22:30S 27°52' E 153°20'0 0.0
2018-Jun-25 21:51S 27°52' E 153°20'0 0.0
2018-Jun-25 21:24S 27°52' E 153°20'0 0.0
2018-Jun-25 21:00S 27°52' E 153°20'0 0.0
2018-Jun-25 20:24S 27°52' E 153°20'0 0.0
2018-Jun-25 20:00S 27°52' E 153°20'0 0.0
2018-Jun-25 19:30S 27°52' E 153°20'0 0.0
2018-Jun-25 19:00S 27°52' E 153°20'0 0.0
2018-Jun-25 18:24S 27°52' E 153°20'0 0.0
2018-Jun-25 17:45S 27°52' E 153°20'0 0.0
2018-Jun-25 17:18S 27°52' E 153°20'0 0.0
2018-Jun-25 16:54S 27°52' E 153°20'0 0.0
2018-Jun-25 16:30S 27°52' E 153°20'0 0.0
2018-Jun-25 16:00S 27°52' E 153°20'0 0.0
2018-Jun-25 15:29S 27°52' E 153°20'0 0.0
2018-Jun-25 14:44S 27°52' E 153°20'0 0.0
2018-Jun-25 14:26S 27°52' E 153°20'0 0.0
2018-Jun-25 13:56S 27°52' E 153°20'0 0.0
2018-Jun-25 13:20S 27°52' E 153°20'0 0.0
2018-Jun-25 12:59S 27°52' E 153°20'0 0.0
2018-Jun-25 12:26S 27°52' E 153°20'0 0.0
2018-Jun-25 11:59S 27°52' E 153°20'0 0.0
2018-Jun-25 11:20S 27°52' E 153°20'0 0.0
2018-Jun-25 10:47S 27°52' E 153°20'0 0.0
2018-Jun-25 10:29S 27°52' E 153°20'0 0.0
2018-Jun-25 09:47S 27°52' E 153°20'0 0.0
2018-Jun-25 09:26S 27°52' E 153°20'0 0.0
2018-Jun-25 08:56S 27°52' E 153°20'0 0.0
2018-Jun-25 06:05S 27°52' E 153°20'0 0.0
2018-Jun-25 05:59S 27°52' E 153°20'0 0.0
2018-Jun-25 05:29S 27°52' E 153°20'0 0.0
2018-Jun-25 04:59S 27°52' E 153°20'0 0.0
2018-Jun-25 04:29S 27°52' E 153°20'0 0.0
2018-Jun-25 03:56S 27°52' E 153°20'0 0.0
2018-Jun-25 03:29S 27°52' E 153°20'0 0.0
2018-Jun-25 02:59S 27°52' E 153°20'0 0.0
2018-Jun-25 02:29S 27°52' E 153°20'0 0.0
2018-Jun-25 01:59S 27°52' E 153°20'0 0.0
2018-Jun-25 01:20S 27°52' E 153°20'0 0.0
2018-Jun-25 00:59S 27°52' E 153°20'0 0.0
2018-Jun-25 00:29S 27°52' E 153°20'0 0.0
2018-Jun-24 23:59S 27°52' E 153°20'0 0.0
2018-Jun-24 20:29S 27°52' E 153°20'0 0.0
2018-Jun-24 19:59S 27°52' E 153°20'0 0.0
2018-Jun-24 19:29S 27°52' E 153°20'0 0.0
2018-Jun-24 18:59S 27°52' E 153°20'0 0.0
2018-Jun-24 18:29S 27°52' E 153°20'0 0.0
2018-Jun-24 17:59S 27°52' E 153°20'0 0.0
2018-Jun-24 17:26S 27°52' E 153°20'0 0.0
2018-Jun-24 16:59S 27°52' E 153°20'0 0.0
2018-Jun-24 16:29S 27°52' E 153°20'0 0.0
2018-Jun-24 15:59S 27°52' E 153°20'0 0.0
2018-Jun-24 15:30S 27°52' E 153°20'0 0.0
2018-Jun-24 14:57S 27°52' E 153°20'0 0.0
2018-Jun-24 14:27S 27°52' E 153°20'0 0.0
2018-Jun-24 14:00S 27°52' E 153°20'0 0.0
2018-Jun-24 13:30S 27°52' E 153°20'0 0.0
2018-Jun-24 13:00S 27°52' E 153°20'0 0.0
2018-Jun-24 12:30S 27°52' E 153°20'0 0.0
2018-Jun-24 12:00S 27°52' E 153°20'0 0.0
2018-Jun-24 11:30S 27°52' E 153°20'0 0.0
2018-Jun-24 11:00S 27°52' E 153°20'0 0.0
2018-Jun-24 10:30S 27°52' E 153°20'0 0.0
2018-Jun-24 10:00S 27°52' E 153°20'0 0.0
2018-Jun-24 09:30S 27°52' E 153°20'0 0.0
2018-Jun-24 09:00S 27°52' E 153°20'0 0.0
2018-Jun-24 08:27S 27°52' E 153°20'0 0.0
2018-Jun-24 08:00S 27°52' E 153°20'0 0.0
2018-Jun-24 07:30S 27°52' E 153°20'0 0.0
2018-Jun-24 06:57S 27°52' E 153°20'0 0.0
2018-Jun-24 06:30S 27°52' E 153°20'0 0.0
2018-Jun-24 06:00S 27°52' E 153°20'0 0.0
2018-Jun-24 05:30S 27°52' E 153°20'0 0.0
2018-Jun-24 04:57S 27°52' E 153°20'0 0.0
2018-Jun-24 04:30S 27°52' E 153°20'0 0.0
2018-Jun-24 04:00S 27°52' E 153°20'0 0.0
2018-Jun-24 03:30S 27°52' E 153°20'0 0.0
2018-Jun-24 03:00S 27°52' E 153°20'0 0.0
2018-Jun-24 02:27S 27°52' E 153°20'0 0.0
2018-Jun-24 02:00S 27°52' E 153°20'0 0.0
2018-Jun-24 01:30S 27°52' E 153°20'0 0.0
2018-Jun-24 01:00S 27°52' E 153°20'0 0.0
2018-Jun-24 00:30S 27°52' E 153°20'0 0.0
2018-Jun-23 23:45S 27°52' E 153°20'0 0.0
2018-Jun-23 23:30S 27°52' E 153°20'0 0.0
2018-Jun-23 22:00S 27°52' E 153°20'0 0.0
2018-Jun-23 21:30S 27°52' E 153°20'0 0.0
2018-Jun-23 21:00S 27°52' E 153°20'0 0.0
2018-Jun-23 20:30S 27°52' E 153°20'0 0.0
2018-Jun-23 19:54S 27°52' E 153°20'0 0.0
2018-Jun-23 19:24S 27°52' E 153°20'0 0.0
2018-Jun-23 19:00S 27°52' E 153°20'0 0.0
2018-Jun-23 18:30S 27°52' E 153°20'0 0.0
2018-Jun-23 18:00S 27°52' E 153°20'0 0.0
2018-Jun-23 17:24S 27°52' E 153°20'0 0.0
2018-Jun-23 17:00S 27°52' E 153°20'0 0.0
2018-Jun-23 16:30S 27°52' E 153°20'0 0.0
2018-Jun-23 16:00S 27°52' E 153°20'0 0.0
2018-Jun-23 15:30S 27°52' E 153°20'0 0.0
2018-Jun-23 15:00S 27°52' E 153°20'0 0.0
2018-Jun-23 14:30S 27°52' E 153°20'0 0.0
2018-Jun-23 14:00S 27°52' E 153°20'0 0.0
2018-Jun-23 13:30S 27°52' E 153°20'0 0.0
2018-Jun-23 13:00S 27°52' E 153°20'0 0.0
2018-Jun-23 12:30S 27°52' E 153°20'0 0.0
2018-Jun-23 12:00S 27°52' E 153°20'0 0.0
2018-Jun-23 11:30S 27°52' E 153°20'0 0.0
2018-Jun-23 11:00S 27°52' E 153°20'0 0.0
2018-Jun-23 09:33S 27°52' E 153°20'0 0.0
2018-Jun-23 09:21S 27°52' E 153°20'0 0.0
2018-Jun-23 08:57S 27°52' E 153°20'0 0.0
2018-Jun-23 08:30S 27°52' E 153°20'0 0.0
2018-Jun-23 05:30S 27°52' E 153°20'0 0.0
2018-Jun-23 04:03S 27°52' E 153°20'0 0.0
2018-Jun-23 03:57S 27°52' E 153°20'  
Track history (hours):
 
Tides and Currents Weather Stations Pressure Air Temp Water Temp Dewpoint Dewpoint Depression Visibility Wind Speed Wind Dir Waves Ship Positions

Adagio

Last reported at 2018-Jul-03 02:20 UTC. Time now 2018-Jul-18 12:29 UTC.
Position S 27°37' E 153°19'.
Warning: this ship's position is 15 days out of date.

Length 22 m.

Type: Pleasure craft. MMSI: 235067171.

Date/timePositionNaut miles runAvg speedWind from/ knotsBaromVisibWave heightAir tempDewpointWater temp
2018-Jul-03 02:20S 27°37' E 153°19'3 7.6
2018-Jul-03 01:58S 27°39' E 153°21'4 8.6
2018-Jul-03 01:30S 27°43' E 153°21'3 6.2
2018-Jul-03 01:00S 27°46' E 153°22'3 5.9
2018-Jul-03 00:30S 27°48' E 153°25'4 8.3
2018-Jul-03 00:00S 27°52' E 153°24'2 3.3
2018-Jul-02 23:30S 27°51' E 153°22'2 3.6
2018-Jul-02 23:00S 27°52' E 153°20'0 0.0
2018-Jul-02 22:24S 27°52' E 153°20'0 0.0
2018-Jul-02 21:33S 27°52' E 153°20'0 0.0
2018-Jul-02 21:27S 27°52' E 153°20'0 0.0
2018-Jul-02 20:54S 27°52' E 153°20'0 0.0
2018-Jul-02 20:27S 27°52' E 153°20'0 0.0
2018-Jul-02 20:00S 27°52' E 153°20'0 0.0
2018-Jul-02 19:27S 27°52' E 153°20'0 0.0
2018-Jul-02 18:57S 27°52' E 153°20'0 0.0
2018-Jul-02 18:27S 27°52' E 153°20'0 0.0
2018-Jul-02 17:06S 27°52' E 153°20'0 0.0
2018-Jul-02 17:00S 27°52' E 153°20'0 0.0
2018-Jul-02 16:30S 27°52' E 153°20'0 0.0
2018-Jul-02 15:51S 27°52' E 153°20'0 0.0
2018-Jul-02 15:30S 27°52' E 153°20'0 0.0
2018-Jul-02 14:54S 27°52' E 153°20'0 0.0
2018-Jul-02 14:27S 27°52' E 153°20'0 0.0
2018-Jul-02 14:00S 27°52' E 153°20'0 0.0
2018-Jul-02 13:27S 27°52' E 153°20'0 0.0
2018-Jul-02 12:57S 27°52' E 153°20'0 0.0
2018-Jul-02 12:21S 27°52' E 153°20'0 0.0
2018-Jul-02 11:54S 27°52' E 153°20'0 0.0
2018-Jul-02 11:30S 27°52' E 153°20'0 0.0
2018-Jul-02 11:00S 27°52' E 153°20'0 0.0
2018-Jul-02 10:18S 27°52' E 153°20'0 0.0
2018-Jul-02 10:00S 27°52' E 153°20'0 0.0
2018-Jul-02 09:24S 27°52' E 153°20'0 0.0
2018-Jul-02 08:54S 27°52' E 153°20'0 0.0
2018-Jul-02 08:18S 27°52' E 153°20'0 0.0
2018-Jul-02 06:54S 27°52' E 153°20'0 0.0
2018-Jul-02 06:24S 27°52' E 153°20'0 0.0
2018-Jul-02 05:54S 27°52' E 153°20'0 0.0
2018-Jul-02 05:21S 27°52' E 153°20'0 0.0
2018-Jul-02 05:00S 27°52' E 153°20'0 0.0
2018-Jul-02 04:30S 27°52' E 153°20'0 0.0
2018-Jul-02 03:45S 27°52' E 153°20'0 0.0
2018-Jul-02 03:30S 27°52' E 153°20'0 0.0
2018-Jul-02 02:54S 27°52' E 153°20'0 0.0
2018-Jul-02 01:51S 27°52' E 153°20'0 0.0
2018-Jul-02 01:21S 27°52' E 153°20'0 0.0
2018-Jul-02 00:33S 27°52' E 153°20'0 0.0
2018-Jul-02 00:30S 27°52' E 153°20'0 0.0
2018-Jul-01 23:48S 27°52' E 153°20'0 0.0
2018-Jul-01 23:21S 27°52' E 153°20'0 0.0
2018-Jul-01 22:42S 27°52' E 153°20'0 0.0
2018-Jul-01 22:15S 27°52' E 153°20'0 0.0
2018-Jul-01 21:57S 27°52' E 153°20'0 0.0
2018-Jul-01 21:12S 27°52' E 153°20'0 0.0
2018-Jul-01 19:03S 27°52' E 153°20'0 0.0
2018-Jul-01 18:48S 27°52' E 153°20'0 0.0
2018-Jul-01 18:30S 27°52' E 153°20'0 0.0
2018-Jul-01 17:57S 27°52' E 153°20'0 0.0
2018-Jul-01 17:30S 27°52' E 153°20'0 0.0
2018-Jul-01 16:45S 27°52' E 153°20'0 0.0
2018-Jul-01 15:45S 27°52' E 153°20'0 0.0
2018-Jul-01 15:21S 27°52' E 153°20'0 0.0
2018-Jul-01 14:57S 27°52' E 153°20'0 0.0
2018-Jul-01 14:21S 27°52' E 153°20'0 0.0
2018-Jul-01 13:51S 27°52' E 153°20'0 0.0
2018-Jul-01 13:27S 27°52' E 153°20'0 0.0
2018-Jul-01 13:00S 27°52' E 153°20'0 0.0
2018-Jul-01 12:12S 27°52' E 153°20'0 0.0
2018-Jul-01 11:42S 27°52' E 153°20'0 0.0
2018-Jul-01 11:24S 27°52' E 153°20'0 0.0
2018-Jul-01 10:48S 27°52' E 153°20'0 0.0
2018-Jul-01 09:57S 27°52' E 153°20'0 0.0
2018-Jul-01 09:27S 27°52' E 153°20'0 0.0
2018-Jul-01 08:57S 27°52' E 153°20'0 0.0
2018-Jul-01 08:27S 27°52' E 153°20'0 0.0
2018-Jul-01 07:27S 27°52' E 153°20'0 0.0
2018-Jul-01 06:30S 27°52' E 153°20'0 0.0
2018-Jul-01 05:57S 27°52' E 153°20'0 0.0
2018-Jul-01 05:21S 27°52' E 153°20'0 0.0
2018-Jul-01 04:57S 27°52' E 153°20'0 0.0
2018-Jul-01 03:15S 27°52' E 153°20'0 0.0
2018-Jul-01 02:54S 27°52' E 153°20'0 0.0
2018-Jul-01 02:18S 27°52' E 153°20'0 0.0
2018-Jul-01 01:57S 27°52' E 153°20'0 0.0
2018-Jul-01 00:57S 27°52' E 153°20'0 0.0
2018-Jul-01 00:30S 27°52' E 153°20'0 0.0
2018-Jun-30 23:48S 27°52' E 153°20'0 0.0
2018-Jun-30 23:21S 27°52' E 153°20'0 0.0
2018-Jun-30 22:54S 27°52' E 153°20'0 0.0
2018-Jun-30 22:21S 27°52' E 153°20'0 0.0
2018-Jun-30 21:15S 27°52' E 153°20'0 0.0
2018-Jun-30 20:51S 27°52' E 153°20'0 0.0
2018-Jun-30 20:21S 27°52' E 153°20'0 0.0
2018-Jun-30 19:57S 27°52' E 153°20'0 0.0
2018-Jun-30 19:30S 27°52' E 153°20'0 0.0
2018-Jun-30 18:54S 27°52' E 153°20'0 0.0
2018-Jun-30 18:18S 27°52' E 153°20'0 0.0
2018-Jun-30 17:57S 27°52' E 153°20'0 0.0
2018-Jun-30 16:33S 27°52' E 153°20'0 0.0
2018-Jun-30 16:27S 27°52' E 153°20'0 0.0
2018-Jun-30 15:57S 27°52' E 153°20'0 0.0
2018-Jun-30 15:27S 27°52' E 153°20'0 0.0
2018-Jun-30 14:36S 27°52' E 153°20'0 0.0
2018-Jun-30 14:30S 27°52' E 153°20'0 0.0
2018-Jun-30 13:54S 27°52' E 153°20'0 0.0
2018-Jun-30 13:30S 27°52' E 153°20'0 0.0
2018-Jun-30 13:00S 27°52' E 153°20'0 0.0
2018-Jun-30 12:21S 27°52' E 153°20'0 0.0
2018-Jun-30 11:57S 27°52' E 153°20'0 0.0
2018-Jun-30 11:27S 27°52' E 153°20'0 0.0
2018-Jun-30 10:45S 27°52' E 153°20'0 0.0
2018-Jun-30 10:21S 27°52' E 153°20'0 0.0
2018-Jun-30 09:54S 27°52' E 153°20'0 0.0
2018-Jun-30 09:30S 27°52' E 153°20'0 0.0
2018-Jun-30 08:57S 27°52' E 153°20'0 0.0
2018-Jun-30 08:09S 27°52' E 153°20'0 0.0
2018-Jun-30 03:42S 27°52' E 153°20'0 0.0
2018-Jun-30 03:30S 27°52' E 153°20'0 0.0
2018-Jun-30 03:00S 27°52' E 153°20'0 0.0
2018-Jun-30 02:30S 27°52' E 153°20'0 0.0
2018-Jun-30 02:00S 27°52' E 153°20'0 0.0
2018-Jun-30 01:30S 27°52' E 153°20'0 0.0
2018-Jun-30 01:00S 27°52' E 153°20'0 0.0
2018-Jun-30 00:30S 27°52' E 153°20'0 0.0
2018-Jun-30 00:00S 27°52' E 153°20'0 0.0
2018-Jun-29 23:30S 27°52' E 153°20'0 0.0
2018-Jun-29 23:00S 27°52' E 153°20'0 0.0
2018-Jun-29 22:30S 27°52' E 153°20'0 0.0
2018-Jun-29 22:00S 27°52' E 153°20'0 0.0
2018-Jun-29 21:30S 27°52' E 153°20'0 0.0
2018-Jun-29 21:00S 27°52' E 153°20'0 0.0
2018-Jun-29 20:30S 27°52' E 153°20'0 0.0
2018-Jun-29 20:00S 27°52' E 153°20'0 0.0
2018-Jun-29 19:30S 27°52' E 153°20'0 0.0
2018-Jun-29 19:00S 27°52' E 153°20'0 0.0
2018-Jun-29 18:30S 27°52' E 153°20'0 0.0
2018-Jun-29 18:00S 27°52' E 153°20'0 0.0
2018-Jun-29 17:30S 27°52' E 153°20'0 0.0
2018-Jun-29 17:00S 27°52' E 153°20'0 0.0
2018-Jun-29 16:30S 27°52' E 153°20'0 0.0
2018-Jun-29 16:00S 27°52' E 153°20'0 0.0
2018-Jun-29 15:28S 27°52' E 153°20'0 0.0
2018-Jun-29 14:58S 27°52' E 153°20'0 0.0
2018-Jun-29 14:28S 27°52' E 153°20'0 0.0
2018-Jun-29 13:58S 27°52' E 153°20'0 0.0
2018-Jun-29 13:28S 27°52' E 153°20'0 0.0
2018-Jun-29 12:58S 27°52' E 153°20'0 0.0
2018-Jun-29 12:28S 27°52' E 153°20'0 0.0
2018-Jun-29 11:58S 27°52' E 153°20'0 0.0
2018-Jun-29 11:28S 27°52' E 153°20'0 0.0
2018-Jun-29 10:58S 27°52' E 153°20'0 0.0
2018-Jun-29 10:28S 27°52' E 153°20'0 0.0
2018-Jun-29 09:55S 27°52' E 153°20'0 0.0
2018-Jun-29 09:28S 27°52' E 153°20'0 0.0
2018-Jun-29 08:58S 27°52' E 153°20'0 0.0
2018-Jun-29 08:28S 27°52' E 153°20'0 0.0
2018-Jun-29 07:58S 27°52' E 153°20'0 0.0
2018-Jun-29 07:25S 27°52' E 153°20'0 0.0
2018-Jun-29 06:58S 27°52' E 153°20'0 0.0
2018-Jun-29 06:28S 27°52' E 153°20'0 0.0
2018-Jun-29 05:52S 27°52' E 153°20'0 0.0
2018-Jun-29 05:28S 27°52' E 153°20'0 0.0
2018-Jun-29 04:58S 27°52' E 153°20'0 0.0
2018-Jun-29 04:28S 27°52' E 153°20'0 0.0
2018-Jun-29 03:58S 27°52' E 153°20'0 0.0
2018-Jun-29 03:28S 27°52' E 153°20'0 0.0
2018-Jun-29 02:58S 27°52' E 153°20'0 0.0
2018-Jun-29 02:28S 27°52' E 153°20'0 0.0
2018-Jun-29 01:58S 27°52' E 153°20'0 0.0
2018-Jun-29 01:28S 27°52' E 153°20'0 0.0
2018-Jun-29 00:58S 27°52' E 153°20'0 0.0
2018-Jun-29 00:28S 27°52' E 153°20'0 0.0
2018-Jun-28 23:58S 27°52' E 153°20'0 0.0
2018-Jun-28 23:22S 27°52' E 153°20'0 0.0
2018-Jun-28 22:58S 27°52' E 153°20'0 0.0
2018-Jun-28 22:25S 27°52' E 153°20'0 0.0
2018-Jun-28 21:58S 27°52' E 153°20'0 0.0
2018-Jun-28 21:28S 27°52' E 153°20'0 0.0
2018-Jun-28 20:58S 27°52' E 153°20'0 0.0
2018-Jun-28 20:28S 27°52' E 153°20'0 0.0
2018-Jun-28 19:58S 27°52' E 153°20'0 0.0
2018-Jun-28 19:28S 27°52' E 153°20'0 0.0
2018-Jun-28 18:58S 27°52' E 153°20'0 0.0
2018-Jun-28 18:28S 27°52' E 153°20'0 0.0
2018-Jun-28 17:58S 27°52' E 153°20'0 0.0
2018-Jun-28 17:28S 27°52' E 153°20'0 0.0
2018-Jun-28 16:58S 27°52' E 153°20'0 0.0
2018-Jun-28 16:28S 27°52' E 153°20'0 0.0
2018-Jun-28 15:58S 27°52' E 153°20'0 0.0
2018-Jun-28 15:28S 27°52' E 153°20'0 0.0
2018-Jun-28 14:58S 27°52' E 153°20'0 0.0
2018-Jun-28 14:28S 27°52' E 153°20'0 0.0
2018-Jun-28 13:58S 27°52' E 153°20'0 0.0
2018-Jun-28 13:28S 27°52' E 153°20'0 0.0
2018-Jun-28 12:58S 27°52' E 153°20'0 0.0
2018-Jun-28 12:28S 27°52' E 153°20'0 0.0
2018-Jun-28 11:58S 27°52' E 153°20'0 0.0
2018-Jun-28 11:28S 27°52' E 153°20'0 0.0
2018-Jun-28 10:58S 27°52' E 153°20'0 0.0
2018-Jun-28 10:28S 27°52' E 153°20'0 0.0
2018-Jun-28 09:58S 27°52' E 153°20'0 0.0
2018-Jun-28 09:25S 27°52' E 153°20'0 0.0
2018-Jun-28 08:58S 27°52' E 153°20'0 0.0
2018-Jun-28 08:28S 27°52' E 153°20'0 0.0
2018-Jun-28 07:58S 27°52' E 153°20'0 0.0
2018-Jun-28 07:28S 27°52' E 153°20'0 0.0
2018-Jun-28 06:58S 27°52' E 153°20'0 0.0
2018-Jun-28 06:25S 27°52' E 153°20'0 0.0
2018-Jun-28 05:58S 27°52' E 153°20'0 0.0
2018-Jun-28 05:28S 27°52' E 153°20'0 0.0
2018-Jun-28 04:58S 27°52' E 153°20'0 0.0
2018-Jun-28 04:28S 27°52' E 153°20'0 0.0
2018-Jun-28 03:58S 27°52' E 153°20'0 0.0
2018-Jun-28 03:28S 27°52' E 153°20'0 0.0
2018-Jun-28 02:58S 27°52' E 153°20'0 0.0
2018-Jun-28 02:28S 27°52' E 153°20'0 0.0
2018-Jun-28 01:58S 27°52' E 153°20'0 0.0
2018-Jun-28 01:28S 27°52' E 153°20'0 0.0
2018-Jun-28 00:58S 27°52' E 153°20'0 0.0
2018-Jun-28 00:28S 27°52' E 153°20'0 0.0
2018-Jun-27 23:52S 27°52' E 153°20'0 0.0
2018-Jun-27 23:28S 27°52' E 153°20'0 0.0
2018-Jun-27 21:13S 27°52' E 153°20'0 0.0
2018-Jun-27 20:58S 27°52' E 153°20'0 0.0
2018-Jun-27 20:22S 27°52' E 153°20'0 0.0
2018-Jun-27 19:40S 27°52' E 153°20'0 0.0
2018-Jun-27 19:22S 27°52' E 153°20'0 0.0
2018-Jun-27 18:43S 27°52' E 153°20'0 0.0
2018-Jun-27 18:25S 27°52' E 153°20'0 0.0
2018-Jun-27 17:49S 27°52' E 153°20'0 0.0
2018-Jun-27 17:22S 27°52' E 153°20'0 0.0
2018-Jun-27 16:55S 27°52' E 153°20'0 0.0
2018-Jun-27 16:25S 27°52' E 153°20'0 0.0
2018-Jun-27 15:55S 27°52' E 153°20'0 0.0
2018-Jun-27 15:28S 27°52' E 153°20'0 0.0
2018-Jun-27 14:58S 27°52' E 153°20'0 0.0
2018-Jun-27 14:28S 27°52' E 153°20'0 0.0
2018-Jun-27 13:58S 27°52' E 153°20'0 0.0
2018-Jun-27 13:01S 27°52' E 153°20'0 0.0
2018-Jun-27 12:58S 27°52' E 153°20'0 0.0
2018-Jun-27 12:22S 27°52' E 153°20'0 0.0
2018-Jun-27 11:40S 27°52' E 153°20'0 0.0
2018-Jun-27 11:16S 27°52' E 153°20'0 0.0
2018-Jun-27 10:52S 27°52' E 153°20'0 0.0
2018-Jun-27 01:28S 27°52' E 153°20'0 0.0
2018-Jun-27 00:58S 27°52' E 153°20'0 0.0
2018-Jun-27 00:25S 27°52' E 153°20'0 0.0
2018-Jun-26 23:58S 27°52' E 153°20'0 0.0
2018-Jun-26 23:28S 27°52' E 153°20'0 0.0
2018-Jun-26 22:55S 27°52' E 153°20'0 0.0
2018-Jun-26 22:28S 27°52' E 153°20'0 0.0
2018-Jun-26 21:58S 27°52' E 153°20'0 0.0
2018-Jun-26 21:28S 27°52' E 153°20'0 0.0
2018-Jun-26 20:52S 27°52' E 153°20'0 0.0
2018-Jun-26 20:28S 27°52' E 153°20'0 0.0
2018-Jun-26 19:58S 27°52' E 153°20'0 0.0
2018-Jun-26 19:28S 27°52' E 153°20'0 0.0
2018-Jun-26 18:58S 27°52' E 153°20'0 0.0
2018-Jun-26 18:28S 27°52' E 153°20'0 0.0
2018-Jun-26 17:55S 27°52' E 153°20'0 0.0
2018-Jun-26 17:25S 27°52' E 153°20'0 0.0
2018-Jun-26 16:58S 27°52' E 153°20'0 0.0
2018-Jun-26 16:00S 27°52' E 153°20'0 0.0
2018-Jun-26 15:30S 27°52' E 153°20'0 0.0
2018-Jun-26 15:00S 27°52' E 153°20'0 0.0
2018-Jun-26 14:24S 27°52' E 153°20'0 0.0
2018-Jun-26 13:54S 27°52' E 153°20'0 0.0
2018-Jun-26 13:30S 27°52' E 153°20'0 0.0
2018-Jun-26 13:00S 27°52' E 153°20'0 0.0
2018-Jun-26 12:30S 27°52' E 153°20'0 0.0
2018-Jun-26 12:00S 27°52' E 153°20'0 0.0
2018-Jun-26 11:30S 27°52' E 153°20'0 0.0
2018-Jun-26 11:00S 27°52' E 153°20'0 0.0
2018-Jun-26 10:30S 27°52' E 153°20'0 0.0
2018-Jun-26 10:00S 27°52' E 153°20'0 0.0
2018-Jun-26 09:30S 27°52' E 153°20'0 0.0
2018-Jun-26 09:00S 27°52' E 153°20'0 0.0
2018-Jun-26 08:15S 27°52' E 153°20'0 0.0
2018-Jun-26 08:00S 27°52' E 153°20'0 0.0
2018-Jun-26 07:30S 27°52' E 153°20'0 0.0
2018-Jun-26 07:00S 27°52' E 153°20'0 0.0
2018-Jun-26 06:27S 27°52' E 153°20'0 0.0
2018-Jun-26 05:54S 27°52' E 153°20'0 0.0
2018-Jun-26 05:30S 27°52' E 153°20'0 0.0
2018-Jun-26 04:57S 27°52' E 153°20'0 0.0
2018-Jun-26 04:30S 27°52' E 153°20'0 0.0
2018-Jun-26 03:57S 27°52' E 153°20'0 0.0
2018-Jun-26 03:30S 27°52' E 153°20'0 0.0
2018-Jun-26 03:00S 27°52' E 153°20'0 0.0
2018-Jun-26 02:30S 27°52' E 153°20'0 0.0
2018-Jun-26 02:00S 27°52' E 153°20'0 0.0
2018-Jun-26 01:21S 27°52' E 153°20'0 0.0
2018-Jun-26 00:57S 27°52' E 153°20'0 0.0
2018-Jun-26 00:30S 27°52' E 153°20'0 0.0
2018-Jun-26 00:00S 27°52' E 153°20'0 0.0
2018-Jun-25 23:27S 27°52' E 153°20'0 0.0
2018-Jun-25 22:57S 27°52' E 153°20'0 0.0
2018-Jun-25 22:30S 27°52' E 153°20'0 0.0
2018-Jun-25 21:51S 27°52' E 153°20'0 0.0
2018-Jun-25 21:24S 27°52' E 153°20'0 0.0
2018-Jun-25 21:00S 27°52' E 153°20'0 0.0
2018-Jun-25 20:24S 27°52' E 153°20'0 0.0
2018-Jun-25 20:00S 27°52' E 153°20'0 0.0
2018-Jun-25 19:30S 27°52' E 153°20'0 0.0
2018-Jun-25 19:00S 27°52' E 153°20'0 0.0
2018-Jun-25 18:24S 27°52' E 153°20'0 0.0
2018-Jun-25 17:45S 27°52' E 153°20'0 0.0
2018-Jun-25 17:18S 27°52' E 153°20'0 0.0
2018-Jun-25 16:54S 27°52' E 153°20'0 0.0
2018-Jun-25 16:30S 27°52' E 153°20'0 0.0
2018-Jun-25 16:00S 27°52' E 153°20'0 0.0
2018-Jun-25 15:29S 27°52' E 153°20'0 0.0
2018-Jun-25 14:44S 27°52' E 153°20'0 0.0
2018-Jun-25 14:26S 27°52' E 153°20'0 0.0
2018-Jun-25 13:56S 27°52' E 153°20'0 0.0
2018-Jun-25 13:20S 27°52' E 153°20'0 0.0
2018-Jun-25 12:59S 27°52' E 153°20'0 0.0
2018-Jun-25 12:26S 27°52' E 153°20'0 0.0
2018-Jun-25 11:59S 27°52' E 153°20'0 0.0
2018-Jun-25 11:20S 27°52' E 153°20'0 0.0
2018-Jun-25 10:47S 27°52' E 153°20'0 0.0
2018-Jun-25 10:29S 27°52' E 153°20'0 0.0
2018-Jun-25 09:47S 27°52' E 153°20'0 0.0
2018-Jun-25 09:26S 27°52' E 153°20'0 0.0
2018-Jun-25 08:56S 27°52' E 153°20'0 0.0
2018-Jun-25 06:05S 27°52' E 153°20'0 0.0
2018-Jun-25 05:59S 27°52' E 153°20'0 0.0
2018-Jun-25 05:29S 27°52' E 153°20'0 0.0
2018-Jun-25 04:59S 27°52' E 153°20'0 0.0
2018-Jun-25 04:29S 27°52' E 153°20'0 0.0
2018-Jun-25 03:56S 27°52' E 153°20'0 0.0
2018-Jun-25 03:29S 27°52' E 153°20'0 0.0
2018-Jun-25 02:59S 27°52' E 153°20'0 0.0
2018-Jun-25 02:29S 27°52' E 153°20'0 0.0
2018-Jun-25 01:59S 27°52' E 153°20'0 0.0
2018-Jun-25 01:20S 27°52' E 153°20'0 0.0
2018-Jun-25 00:59S 27°52' E 153°20'0 0.0
2018-Jun-25 00:29S 27°52' E 153°20'0 0.0
2018-Jun-24 23:59S 27°52' E 153°20'0 0.0
2018-Jun-24 20:29S 27°52' E 153°20'0 0.0
2018-Jun-24 19:59S 27°52' E 153°20'0 0.0
2018-Jun-24 19:29S 27°52' E 153°20'0 0.0
2018-Jun-24 18:59S 27°52' E 153°20'0 0.0
2018-Jun-24 18:29S 27°52' E 153°20'0 0.0
2018-Jun-24 17:59S 27°52' E 153°20'0 0.0
2018-Jun-24 17:26S 27°52' E 153°20'0 0.0
2018-Jun-24 16:59S 27°52' E 153°20'0 0.0
2018-Jun-24 16:29S 27°52' E 153°20'0 0.0
2018-Jun-24 15:59S 27°52' E 153°20'0 0.0
2018-Jun-24 15:30S 27°52' E 153°20'0 0.0
2018-Jun-24 14:57S 27°52' E 153°20'0 0.0
2018-Jun-24 14:27S 27°52' E 153°20'0 0.0
2018-Jun-24 14:00S 27°52' E 153°20'0 0.0
2018-Jun-24 13:30S 27°52' E 153°20'0 0.0
2018-Jun-24 13:00S 27°52' E 153°20'0 0.0
2018-Jun-24 12:30S 27°52' E 153°20'0 0.0
2018-Jun-24 12:00S 27°52' E 153°20'0 0.0
2018-Jun-24 11:30S 27°52' E 153°20'0 0.0
2018-Jun-24 11:00S 27°52' E 153°20'0 0.0
2018-Jun-24 10:30S 27°52' E 153°20'0 0.0
2018-Jun-24 10:00S 27°52' E 153°20'0 0.0
2018-Jun-24 09:30S 27°52' E 153°20'0 0.0
2018-Jun-24 09:00S 27°52' E 153°20'0 0.0
2018-Jun-24 08:27S 27°52' E 153°20'0 0.0
2018-Jun-24 08:00S 27°52' E 153°20'0 0.0
2018-Jun-24 07:30S 27°52' E 153°20'0 0.0
2018-Jun-24 06:57S 27°52' E 153°20'0 0.0
2018-Jun-24 06:30S 27°52' E 153°20'0 0.0
2018-Jun-24 06:00S 27°52' E 153°20'0 0.0
2018-Jun-24 05:30S 27°52' E 153°20'0 0.0
2018-Jun-24 04:57S 27°52' E 153°20'0 0.0
2018-Jun-24 04:30S 27°52' E 153°20'0 0.0
2018-Jun-24 04:00S 27°52' E 153°20'0 0.0
2018-Jun-24 03:30S 27°52' E 153°20'0 0.0
2018-Jun-24 03:00S 27°52' E 153°20'0 0.0
2018-Jun-24 02:27S 27°52' E 153°20'0 0.0
2018-Jun-24 02:00S 27°52' E 153°20'0 0.0
2018-Jun-24 01:30S 27°52' E 153°20'0 0.0
2018-Jun-24 01:00S 27°52' E 153°20'0 0.0
2018-Jun-24 00:30S 27°52' E 153°20'0 0.0
2018-Jun-23 23:45S 27°52' E 153°20'0 0.0
2018-Jun-23 23:30S 27°52' E 153°20'0 0.0
2018-Jun-23 22:00S 27°52' E 153°20'0 0.0
2018-Jun-23 21:30S 27°52' E 153°20'0 0.0
2018-Jun-23 21:00S 27°52' E 153°20'0 0.0
2018-Jun-23 20:30S 27°52' E 153°20'0 0.0
2018-Jun-23 19:54S 27°52' E 153°20'0 0.0
2018-Jun-23 19:24S 27°52' E 153°20'0 0.0
2018-Jun-23 19:00S 27°52' E 153°20'0 0.0
2018-Jun-23 18:30S 27°52' E 153°20'0 0.0
2018-Jun-23 18:00S 27°52' E 153°20'0 0.0
2018-Jun-23 17:24S 27°52' E 153°20'0 0.0
2018-Jun-23 17:00S 27°52' E 153°20'0 0.0
2018-Jun-23 16:30S 27°52' E 153°20'0 0.0
2018-Jun-23 16:00S 27°52' E 153°20'0 0.0
2018-Jun-23 15:30S 27°52' E 153°20'0 0.0
2018-Jun-23 15:00S 27°52' E 153°20'0 0.0
2018-Jun-23 14:30S 27°52' E 153°20'0 0.0
2018-Jun-23 14:00S 27°52' E 153°20'0 0.0
2018-Jun-23 13:30S 27°52' E 153°20'0 0.0
2018-Jun-23 13:00S 27°52' E 153°20'0 0.0
2018-Jun-23 12:30S 27°52' E 153°20'0 0.0
2018-Jun-23 12:00S 27°52' E 153°20'0 0.0
2018-Jun-23 11:30S 27°52' E 153°20'0 0.0
2018-Jun-23 11:00S 27°52' E 153°20'0 0.0
2018-Jun-23 09:33S 27°52' E 153°20'0 0.0
2018-Jun-23 09:21S 27°52' E 153°20'0 0.0
2018-Jun-23 08:57S 27°52' E 153°20'0 0.0
2018-Jun-23 08:30S 27°52' E 153°20'0 0.0
2018-Jun-23 05:30S 27°52' E 153°20'0 0.0
2018-Jun-23 04:03S 27°52' E 153°20'0 0.0
2018-Jun-23 03:57S 27°52' E 153°20'  

Dump ship's entire track history